Loading…
Loading parcel record…
Hopewell Twp, NJ·Mercer County
Owner email, phone, and authorized agent are available on Pro.
| Date | Price | Book / Page | Verified by |
|---|---|---|---|
| 12/18/2013 | $1 | 6184 / 1734 | Tax assessor |
| 7/20/1990 | $3,549,000 | 2535 / 677 | Tax assessor |
Activity captured from the county clerk's daily feed. Includes deeds, mortgages, and other recorded filings.
| Date |
|---|
| Type |
|---|
| Grantor |
|---|
| Grantee |
|---|
| Book / Page |
|---|
| Instrument |
|---|
| 2026-04-10 | MORTGAGE | — | — | 12041 / 235 | 2026015539 |
| 2026-04-10 | DEED | — | — | 6622 / 1389 | 2026015538 |
| 2026-03-30 | DISCHARGE OF MORTGAGE | — | — | 1693 / 1073 | 2026013575 |
| 2026-03-02 | NOTICE OF SETTLEMENT | — | — | 1625 / 30 | 2026008651 |
| 2026-01-22 | DISCHARGE OF MORTGAGE | — | — | 1691 / 90 | 2026002494 |
| 2026-01-22 | UCC CONTINUATION | — | — | 260 / 415 | 2026002472 |
| 2026-01-22 | UCC CONTINUATION | — | — | 260 / 365 | 2026002322 |
| 2026-01-22 | UCC CONTINUATION | — | — | 260 / 353 | 2026002319 |
| 2025-08-19 | DEED | — | — | 6600 / 1818 | 2025030141 |
| 2022-04-06 | DEED | — | — | 6480 / 1877 | 2022018058 |
| 2022-01-27 | NOTICE OF SETTLEMENT | — | — | 1569 / 1203 | 2022005259 |
| 2022-01-27 | NOTICE OF SETTLEMENT | — | — | 1569 / 1200 | 2022005258 |
| 2019-09-30 | DEED | — | — | 6382 / 1545 | 2019042466 |
| 2018-11-27 | DEED | — | — | 6349 / 1535 | 2018050412 |
| 2017-08-14 | DEED | — | — | 6296 / 170 | 2017037401 |
| 2016-10-26 | POWER OF ATTORNEY | — | — | 6266 / 533 | 2016050443 |
| 2016-09-15 | DEED | — | — | 6261 / 1876 | 2016043021 |
| 2002-03-05 | DD1 | — | — | 4233 / 52 | 2002011870 |
| 2002-01-20 | DD1 | — | — | 4207 / 215 | 2002005115 |
| 2001-06-15 | DD1 | — | — | 4066 / 17 | 2001024457 |
| 2001-03-24 | DD1 | — | — | 4017 / 180 | 2001009884 |
| 2000-08-22 | DD2 | — | — | 3891 / 62 | 2000033098 |
| 2000-04-10 | DD1 | — | — | 3802 / 11 | 2000014105 |
| 2000-01-13 | DD1 | — | — | 3742 / 95 | 2000001480 |
| 1999-10-25 | DD1 | — | — | 3696 / 58 | 1999042271 |
| 1999-04-19 | DD1 | — | — | 3578 / 59 | 1999013996 |
| 1999-03-26 | DD1 | — | — | 3566 / 197 | 1999010751 |
| 1998-12-03 | ASN | — | — | 606 / 234 | 1998047717 |
| 1998-12-03 | DD2 | — | — | 3500 / 126 | 1998047715 |
| 1998-10-19 | DD1 | — | — | 3470 / 123 | 1998041708 |